sensor_id;sensor_type;location;lat;lon;timestamp;pressure;altitude;pressure_sealevel;temperature;humidity
43298;BME280;28892;55.640;37.532;2023-02-02T00:00:45;97701.88;;;-1.03;72.07
43298;BME280;28892;55.640;37.532;2023-02-02T00:03:11;97701.78;;;-0.65;70.61
43298;BME280;28892;55.640;37.532;2023-02-02T00:05:37;97708.56;;;-0.73;70.24
43298;BME280;28892;55.640;37.532;2023-02-02T00:08:02;97707.78;;;-1.01;71.10
43298;BME280;28892;55.640;37.532;2023-02-02T00:10:28;97703.94;;;-0.79;70.75
43298;BME280;28892;55.640;37.532;2023-02-02T00:12:54;97708.19;;;-0.60;69.83
43298;BME280;28892;55.640;37.532;2023-02-02T00:15:23;97705.53;;;-0.50;68.93
43298;BME280;28892;55.640;37.532;2023-02-02T00:17:49;97707.72;;;-0.73;69.88
43298;BME280;28892;55.640;37.532;2023-02-02T00:20:15;97713.88;;;-0.92;70.79
43298;BME280;28892;55.640;37.532;2023-02-02T00:22:40;97709.13;;;-0.97;70.61
43298;BME280;28892;55.640;37.532;2023-02-02T00:25:06;97701.84;;;-0.93;71.27
43298;BME280;28892;55.640;37.532;2023-02-02T00:27:32;97698.16;;;-1.01;70.89
43298;BME280;28892;55.640;37.532;2023-02-02T00:29:58;97694.34;;;-0.78;70.42
43298;BME280;28892;55.640;37.532;2023-02-02T00:32:23;97696.91;;;-0.32;69.40
43298;BME280;28892;55.640;37.532;2023-02-02T00:34:49;97697.88;;;-0.07;68.39
43298;BME280;28892;55.640;37.532;2023-02-02T00:37:15;97689.00;;;-0.59;68.65
43298;BME280;28892;55.640;37.532;2023-02-02T00:39:41;97693.59;;;-0.89;69.67
43298;BME280;28892;55.640;37.532;2023-02-02T00:42:10;97706.00;;;-0.82;69.88
43298;BME280;28892;55.640;37.532;2023-02-02T00:44:35;97702.72;;;-0.85;69.33
43298;BME280;28892;55.640;37.532;2023-02-02T00:47:19;97696.66;;;-0.75;69.80
43298;BME280;28892;55.640;37.532;2023-02-02T00:49:47;97692.41;;;-0.76;69.85
43298;BME280;28892;55.640;37.532;2023-02-02T00:52:13;97703.34;;;-0.91;69.21
43298;BME280;28892;55.640;37.532;2023-02-02T00:54:39;97702.81;;;-0.94;69.40
43298;BME280;28892;55.640;37.532;2023-02-02T00:57:05;97704.31;;;-0.74;68.60
43298;BME280;28892;55.640;37.532;2023-02-02T00:59:30;97690.13;;;-0.79;67.93
43298;BME280;28892;55.640;37.532;2023-02-02T01:01:56;97697.69;;;-1.14;69.12
43298;BME280;28892;55.640;37.532;2023-02-02T01:04:22;97694.31;;;-0.96;68.76
43298;BME280;28892;55.640;37.532;2023-02-02T01:06:48;97698.81;;;-0.89;67.90
43298;BME280;28892;55.640;37.532;2023-02-02T01:09:13;97694.81;;;-1.11;68.68
43298;BME280;28892;55.640;37.532;2023-02-02T01:11:39;97698.47;;;-1.04;68.65
43298;BME280;28892;55.640;37.532;2023-02-02T01:14:05;97680.91;;;-1.02;68.52
43298;BME280;28892;55.640;37.532;2023-02-02T01:16:30;97695.41;;;-1.17;69.37
43298;BME280;28892;55.640;37.532;2023-02-02T01:18:56;97693.44;;;-0.87;68.38
43298;BME280;28892;55.640;37.532;2023-02-02T01:21:22;97695.78;;;-0.66;67.82
43298;BME280;28892;55.640;37.532;2023-02-02T01:23:48;97694.38;;;-0.60;67.70
43298;BME280;28892;55.640;37.532;2023-02-02T01:26:15;97687.94;;;-0.84;68.20
43298;BME280;28892;55.640;37.532;2023-02-02T01:28:41;97686.22;;;-1.21;68.85
43298;BME280;28892;55.640;37.532;2023-02-02T01:31:10;97685.34;;;-0.84;68.90
43298;BME280;28892;55.640;37.532;2023-02-02T01:33:36;97697.16;;;-1.18;69.12
43298;BME280;28892;55.640;37.532;2023-02-02T01:36:08;97678.94;;;-1.18;69.82
43298;BME280;28892;55.640;37.532;2023-02-02T01:38:35;97675.56;;;-1.00;69.83
43298;BME280;28892;55.640;37.532;2023-02-02T01:41:01;97678.34;;;-1.30;69.87
43298;BME280;28892;55.640;37.532;2023-02-02T01:46:14;97686.13;;;-1.02;69.91
43298;BME280;28892;55.640;37.532;2023-02-02T01:48:48;97682.38;;;-1.17;69.60
43298;BME280;28892;55.640;37.532;2023-02-02T01:51:19;97676.31;;;-1.08;69.83
43298;BME280;28892;55.640;37.532;2023-02-02T01:53:47;97676.88;;;-1.14;69.50
43298;BME280;28892;55.640;37.532;2023-02-02T01:56:18;97682.81;;;-1.22;69.61
43298;BME280;28892;55.640;37.532;2023-02-02T01:58:44;97683.81;;;-1.05;69.12
43298;BME280;28892;55.640;37.532;2023-02-02T02:01:11;97678.41;;;-0.93;68.64
43298;BME280;28892;55.640;37.532;2023-02-02T02:03:38;97685.97;;;-1.28;69.37
43298;BME280;28892;55.640;37.532;2023-02-02T02:06:10;97678.16;;;-1.18;69.04
43298;BME280;28892;55.640;37.532;2023-02-02T02:08:59;97681.94;;;-1.13;69.39
43298;BME280;28892;55.640;37.532;2023-02-02T02:11:27;97689.56;;;-1.01;68.92
43298;BME280;28892;55.640;37.532;2023-02-02T02:13:55;97681.16;;;-0.95;68.88
43298;BME280;28892;55.640;37.532;2023-02-02T02:34:38;97676.44;;;-0.63;67.97
43298;BME280;28892;55.640;37.532;2023-02-02T02:39:50;97680.06;;;-1.20;68.86
43298;BME280;28892;55.640;37.532;2023-02-02T02:42:22;97677.94;;;-1.35;69.25
43298;BME280;28892;55.640;37.532;2023-02-02T02:44:49;97690.16;;;-1.35;69.07
43298;BME280;28892;55.640;37.532;2023-02-02T02:47:17;97681.38;;;-1.34;68.92
43298;BME280;28892;55.640;37.532;2023-02-02T02:49:46;97686.88;;;-1.19;68.75
43298;BME280;28892;55.640;37.532;2023-02-02T02:52:15;97687.69;;;-1.37;68.16
43298;BME280;28892;55.640;37.532;2023-02-02T02:54:45;97689.78;;;-1.22;68.60
43298;BME280;28892;55.640;37.532;2023-02-02T02:57:22;97693.38;;;-0.95;67.28
43298;BME280;28892;55.640;37.532;2023-02-02T03:02:53;97695.72;;;-1.02;67.21
43298;BME280;28892;55.640;37.532;2023-02-02T03:08:31;97682.03;;;-1.04;67.01
43298;BME280;28892;55.640;37.532;2023-02-02T03:10:58;97691.34;;;-1.30;67.02
43298;BME280;28892;55.640;37.532;2023-02-02T03:13:27;97691.03;;;-0.99;66.91
43298;BME280;28892;55.640;37.532;2023-02-02T03:15:54;97701.50;;;-0.62;65.78
43298;BME280;28892;55.640;37.532;2023-02-02T03:18:22;97695.53;;;-0.73;65.67
43298;BME280;28892;55.640;37.532;2023-02-02T03:20:48;97694.63;;;-0.81;65.79
43298;BME280;28892;55.640;37.532;2023-02-02T03:23:14;97700.56;;;-0.89;65.87
43298;BME280;28892;55.640;37.532;2023-02-02T03:25:40;97699.59;;;-0.88;66.44
43298;BME280;28892;55.640;37.532;2023-02-02T03:28:06;97700.81;;;-0.82;66.34
43298;BME280;28892;55.640;37.532;2023-02-02T03:31:01;97704.38;;;-0.83;66.54
43298;BME280;28892;55.640;37.532;2023-02-02T03:33:29;97700.88;;;-0.74;66.33
43298;BME280;28892;55.640;37.532;2023-02-02T03:35:55;97706.97;;;-0.83;66.13
43298;BME280;28892;55.640;37.532;2023-02-02T03:38:20;97708.09;;;-0.86;66.45
43298;BME280;28892;55.640;37.532;2023-02-02T03:40:46;97708.34;;;-1.07;67.07
43298;BME280;28892;55.640;37.532;2023-02-02T03:43:12;97708.41;;;-0.71;66.36
43298;BME280;28892;55.640;37.532;2023-02-02T03:45:37;97714.53;;;-0.62;65.50
43298;BME280;28892;55.640;37.532;2023-02-02T03:48:05;97707.28;;;-0.68;65.64
43298;BME280;28892;55.640;37.532;2023-02-02T03:50:31;97706.94;;;-0.37;65.16
43298;BME280;28892;55.640;37.532;2023-02-02T03:52:57;97711.03;;;-0.53;65.05
43298;BME280;28892;55.640;37.532;2023-02-02T03:55:23;97710.94;;;-0.79;65.24
43298;BME280;28892;55.640;37.532;2023-02-02T03:57:48;97715.63;;;-0.83;65.71
43298;BME280;28892;55.640;37.532;2023-02-02T04:00:14;97714.22;;;-0.41;65.40
43298;BME280;28892;55.640;37.532;2023-02-02T04:02:40;97711.94;;;-0.90;65.74
43298;BME280;28892;55.640;37.532;2023-02-02T04:05:06;97704.88;;;-0.52;65.93
43298;BME280;28892;55.640;37.532;2023-02-02T04:07:32;97718.91;;;-0.45;65.16
43298;BME280;28892;55.640;37.532;2023-02-02T04:09:57;97720.72;;;-0.27;64.44
43298;BME280;28892;55.640;37.532;2023-02-02T04:12:23;97716.31;;;-0.63;64.92
43298;BME280;28892;55.640;37.532;2023-02-02T04:14:49;97716.81;;;-0.59;65.58
43298;BME280;28892;55.640;37.532;2023-02-02T04:17:14;97719.44;;;-0.59;65.12
43298;BME280;28892;55.640;37.532;2023-02-02T04:19:40;97719.13;;;-0.56;64.99
43298;BME280;28892;55.640;37.532;2023-02-02T04:22:05;97714.38;;;-1.07;66.22
43298;BME280;28892;55.640;37.532;2023-02-02T04:24:31;97709.34;;;-0.90;66.30
43298;BME280;28892;55.640;37.532;2023-02-02T04:26:57;97717.91;;;-0.80;66.34
43298;BME280;28892;55.640;37.532;2023-02-02T04:29:22;97716.38;;;-0.36;65.36
43298;BME280;28892;55.640;37.532;2023-02-02T04:31:49;97714.75;;;-0.74;65.41
43298;BME280;28892;55.640;37.532;2023-02-02T04:34:15;97723.13;;;-0.80;66.24
43298;BME280;28892;55.640;37.532;2023-02-02T04:36:40;97717.63;;;-0.77;66.20
43298;BME280;28892;55.640;37.532;2023-02-02T04:39:08;97724.03;;;-1.17;67.45
43298;BME280;28892;55.640;37.532;2023-02-02T04:41:35;97731.25;;;-0.83;67.10
43298;BME280;28892;55.640;37.532;2023-02-02T04:44:00;97718.59;;;-0.60;66.29
43298;BME280;28892;55.640;37.532;2023-02-02T04:46:26;97721.97;;;-0.49;66.14
43298;BME280;28892;55.640;37.532;2023-02-02T04:48:53;97729.19;;;-0.61;66.45
43298;BME280;28892;55.640;37.532;2023-02-02T04:51:18;97730.81;;;-0.60;66.00
43298;BME280;28892;55.640;37.532;2023-02-02T04:53:44;97729.78;;;-0.49;66.24
43298;BME280;28892;55.640;37.532;2023-02-02T04:56:13;97729.56;;;-0.56;66.52
43298;BME280;28892;55.640;37.532;2023-02-02T04:58:43;97736.78;;;-0.96;67.54
43298;BME280;28892;55.640;37.532;2023-02-02T05:01:11;97725.94;;;-0.91;67.62
43298;BME280;28892;55.640;37.532;2023-02-02T05:03:40;97733.19;;;-0.85;67.70
43298;BME280;28892;55.640;37.532;2023-02-02T05:06:06;97738.84;;;-0.72;67.53
43298;BME280;28892;55.640;37.532;2023-02-02T05:08:35;97733.94;;;-0.75;67.71
43298;BME280;28892;55.640;37.532;2023-02-02T05:11:29;97738.50;;;-0.59;67.57
43298;BME280;28892;55.640;37.532;2023-02-02T05:13:55;97739.78;;;-0.91;68.15
43298;BME280;28892;55.640;37.532;2023-02-02T05:16:22;97736.91;;;-1.25;69.24
43298;BME280;28892;55.640;37.532;2023-02-02T05:18:52;97735.47;;;-1.10;69.34
43298;BME280;28892;55.640;37.532;2023-02-02T05:21:18;97740.69;;;-0.82;69.07
43298;BME280;28892;55.640;37.532;2023-02-02T05:23:45;97747.72;;;-0.64;68.19
43298;BME280;28892;55.640;37.532;2023-02-02T05:26:17;97746.44;;;-0.78;68.28
43298;BME280;28892;55.640;37.532;2023-02-02T05:28:44;97746.81;;;-0.55;67.53
43298;BME280;28892;55.640;37.532;2023-02-02T05:31:09;97750.00;;;-0.79;68.05
43298;BME280;28892;55.640;37.532;2023-02-02T05:33:35;97752.19;;;-0.57;67.77
43298;BME280;28892;55.640;37.532;2023-02-02T05:36:01;97746.66;;;-0.72;68.25
43298;BME280;28892;55.640;37.532;2023-02-02T05:38:27;97752.00;;;-0.73;68.02
43298;BME280;28892;55.640;37.532;2023-02-02T05:40:53;97741.16;;;-0.50;67.86
43298;BME280;28892;55.640;37.532;2023-02-02T05:43:18;97742.03;;;-0.60;67.59
43298;BME280;28892;55.640;37.532;2023-02-02T05:45:44;97740.38;;;-0.51;67.64
43298;BME280;28892;55.640;37.532;2023-02-02T05:48:13;97744.47;;;-0.48;67.54
43298;BME280;28892;55.640;37.532;2023-02-02T05:50:41;97747.13;;;-0.58;67.98
43298;BME280;28892;55.640;37.532;2023-02-02T05:53:08;97738.31;;;-0.75;67.73
43298;BME280;28892;55.640;37.532;2023-02-02T05:55:34;97746.63;;;-0.90;68.35
43298;BME280;28892;55.640;37.532;2023-02-02T05:58:00;97744.28;;;-0.47;67.25
43298;BME280;28892;55.640;37.532;2023-02-02T06:00:26;97755.69;;;-0.48;67.18
43298;BME280;28892;55.640;37.532;2023-02-02T06:02:52;97756.34;;;-0.64;67.33
43298;BME280;28892;55.640;37.532;2023-02-02T06:05:17;97758.41;;;-0.67;68.01
43298;BME280;28892;55.640;37.532;2023-02-02T06:07:43;97765.31;;;-0.48;67.42
43298;BME280;28892;55.640;37.532;2023-02-02T06:10:09;97758.19;;;-0.56;67.12
43298;BME280;28892;55.640;37.532;2023-02-02T06:12:35;97767.38;;;-0.80;67.66
43298;BME280;28892;55.640;37.532;2023-02-02T06:15:00;97760.22;;;-0.96;68.62
43298;BME280;28892;55.640;37.532;2023-02-02T06:17:26;97761.66;;;-1.11;68.72
43298;BME280;28892;55.640;37.532;2023-02-02T06:19:52;97768.44;;;-1.29;69.60
43298;BME280;28892;55.640;37.532;2023-02-02T06:22:17;97778.97;;;-0.92;69.28
43298;BME280;28892;55.640;37.532;2023-02-02T06:24:43;97767.09;;;-0.77;68.10
43298;BME280;28892;55.640;37.532;2023-02-02T06:27:08;97770.84;;;-0.61;67.79
43298;BME280;28892;55.640;37.532;2023-02-02T06:29:34;97769.63;;;-0.21;66.32
43298;BME280;28892;55.640;37.532;2023-02-02T06:32:00;97767.69;;;-0.37;66.17
43298;BME280;28892;55.640;37.532;2023-02-02T06:34:25;97775.34;;;-0.35;66.47
43298;BME280;28892;55.640;37.532;2023-02-02T06:36:51;97779.19;;;-0.58;67.39
43298;BME280;28892;55.640;37.532;2023-02-02T06:39:17;97775.13;;;-0.24;66.61
43298;BME280;28892;55.640;37.532;2023-02-02T06:41:43;97775.88;;;-0.13;66.10
43298;BME280;28892;55.640;37.532;2023-02-02T06:44:12;97771.34;;;0.07;65.32
43298;BME280;28892;55.640;37.532;2023-02-02T06:46:40;97771.31;;;-0.11;64.93
43298;BME280;28892;55.640;37.532;2023-02-02T06:49:07;97758.66;;;0.12;65.13
43298;BME280;28892;55.640;37.532;2023-02-02T06:51:33;97781.91;;;-0.13;64.96
43298;BME280;28892;55.640;37.532;2023-02-02T06:53:59;97770.38;;;-0.10;65.21
43298;BME280;28892;55.640;37.532;2023-02-02T06:56:24;97772.66;;;-0.44;66.14
43298;BME280;28892;55.640;37.532;2023-02-02T06:58:50;97777.81;;;-0.34;66.41
43298;BME280;28892;55.640;37.532;2023-02-02T07:01:16;97777.84;;;-0.44;66.74
43298;BME280;28892;55.640;37.532;2023-02-02T07:03:41;97781.16;;;-0.23;66.29
43298;BME280;28892;55.640;37.532;2023-02-02T07:08:40;97783.38;;;-0.29;65.83
43298;BME280;28892;55.640;37.532;2023-02-02T07:11:06;97787.56;;;-0.36;66.78
43298;BME280;28892;55.640;37.532;2023-02-02T07:13:32;97784.56;;;-0.59;66.86
43298;BME280;28892;55.640;37.532;2023-02-02T07:15:57;97787.69;;;-0.55;67.45
43298;BME280;28892;55.640;37.532;2023-02-02T07:18:23;97795.31;;;-0.26;66.73
43298;BME280;28892;55.640;37.532;2023-02-02T07:20:49;97790.63;;;-0.22;66.00
43298;BME280;28892;55.640;37.532;2023-02-02T07:23:14;97788.28;;;-0.44;66.76
43298;BME280;28892;55.640;37.532;2023-02-02T07:25:40;97786.94;;;-0.48;66.97
43298;BME280;28892;55.640;37.532;2023-02-02T07:28:06;97784.38;;;-0.76;67.71
43298;BME280;28892;55.640;37.532;2023-02-02T07:30:31;97789.47;;;-0.84;68.02
43298;BME280;28892;55.640;37.532;2023-02-02T07:32:57;97786.91;;;-0.66;67.89
43298;BME280;28892;55.640;37.532;2023-02-02T07:35:23;97790.81;;;-0.52;67.58
43298;BME280;28892;55.640;37.532;2023-02-02T07:37:53;97785.47;;;-0.78;67.99
43298;BME280;28892;55.640;37.532;2023-02-02T07:40:21;97791.25;;;-0.85;67.54
43298;BME280;28892;55.640;37.532;2023-02-02T07:42:48;97801.53;;;-1.21;68.32
43298;BME280;28892;55.640;37.532;2023-02-02T07:45:14;97795.41;;;-0.92;68.45
43298;BME280;28892;55.640;37.532;2023-02-02T07:47:40;97785.09;;;-1.21;68.31
43298;BME280;28892;55.640;37.532;2023-02-02T07:50:06;97798.84;;;-1.49;69.39
43298;BME280;28892;55.640;37.532;2023-02-02T07:52:32;97791.09;;;-1.11;68.43
43298;BME280;28892;55.640;37.532;2023-02-02T07:54:58;97792.63;;;-1.18;67.65
43298;BME280;28892;55.640;37.532;2023-02-02T07:57:27;97793.06;;;-1.33;69.00
43298;BME280;28892;55.640;37.532;2023-02-02T07:59:52;97796.63;;;-1.24;68.58
43298;BME280;28892;55.640;37.532;2023-02-02T08:02:19;97799.31;;;-1.16;68.51
43298;BME280;28892;55.640;37.532;2023-02-02T08:04:44;97795.31;;;-0.72;67.35
43298;BME280;28892;55.640;37.532;2023-02-02T08:07:11;97802.47;;;-0.28;66.84
43298;BME280;28892;55.640;37.532;2023-02-02T08:09:37;97795.59;;;0.07;64.89
43298;BME280;28892;55.640;37.532;2023-02-02T08:12:03;97798.88;;;0.27;64.41
43298;BME280;28892;55.640;37.532;2023-02-02T08:14:28;97805.63;;;-0.34;64.46
43298;BME280;28892;55.640;37.532;2023-02-02T08:16:54;97794.84;;;-0.58;65.79
43298;BME280;28892;55.640;37.532;2023-02-02T08:19:20;97798.69;;;-0.90;66.85
43298;BME280;28892;55.640;37.532;2023-02-02T08:21:48;97803.22;;;-0.64;66.91
43298;BME280;28892;55.640;37.532;2023-02-02T08:24:14;97791.41;;;-0.40;65.79
43298;BME280;28892;55.640;37.532;2023-02-02T08:26:39;97781.31;;;-0.71;66.17
43298;BME280;28892;55.640;37.532;2023-02-02T08:29:07;97806.75;;;-0.93;66.33
43298;BME280;28892;55.640;37.532;2023-02-02T08:31:38;97805.44;;;-0.69;66.94
43298;BME280;28892;55.640;37.532;2023-02-02T08:34:06;97796.06;;;-0.62;66.78
43298;BME280;28892;55.640;37.532;2023-02-02T08:36:32;97798.47;;;-0.50;66.05
43298;BME280;28892;55.640;37.532;2023-02-02T08:39:04;97796.81;;;-0.23;65.05
43298;BME280;28892;55.640;37.532;2023-02-02T08:41:35;97798.53;;;-0.32;64.95
43298;BME280;28892;55.640;37.532;2023-02-02T08:44:14;97786.72;;;-0.54;65.20
43298;BME280;28892;55.640;37.532;2023-02-02T08:46:43;97787.13;;;-0.13;64.21
43298;BME280;28892;55.640;37.532;2023-02-02T08:49:12;97785.31;;;-0.49;63.93
43298;BME280;28892;55.640;37.532;2023-02-02T08:51:41;97779.81;;;-0.28;64.41
43298;BME280;28892;55.640;37.532;2023-02-02T08:54:10;97795.16;;;-0.06;64.25
43298;BME280;28892;55.640;37.532;2023-02-02T08:56:37;97784.22;;;-0.28;63.61
43298;BME280;28892;55.640;37.532;2023-02-02T08:59:23;97795.16;;;-0.43;64.11
43298;BME280;28892;55.640;37.532;2023-02-02T09:01:52;97773.72;;;-0.18;63.64
43298;BME280;28892;55.640;37.532;2023-02-02T09:04:19;97795.75;;;-0.12;63.86
43298;BME280;28892;55.640;37.532;2023-02-02T09:07:14;97778.50;;;0.49;63.30
43298;BME280;28892;55.640;37.532;2023-02-02T09:09:56;97776.94;;;0.91;62.53
43298;BME280;28892;55.640;37.532;2023-02-02T09:12:43;97790.53;;;1.46;60.58
43298;BME280;28892;55.640;37.532;2023-02-02T09:27:49;97772.91;;;1.57;58.40
43298;BME280;28892;55.640;37.532;2023-02-02T09:52:07;97774.75;;;1.13;59.64
43298;BME280;28892;55.640;37.532;2023-02-02T09:56:04;97764.75;;;0.74;60.13
43298;BME280;28892;55.640;37.532;2023-02-02T10:06:50;97780.91;;;1.04;59.08
43298;BME280;28892;55.640;37.532;2023-02-02T10:09:39;97771.78;;;0.47;60.50
43298;BME280;28892;55.640;37.532;2023-02-02T10:19:47;97772.91;;;1.05;59.37
43298;BME280;28892;55.640;37.532;2023-02-02T10:22:23;97764.63;;;1.10;59.47
43298;BME280;28892;55.640;37.532;2023-02-02T10:24:52;97770.78;;;1.01;59.78
43298;BME280;28892;55.640;37.532;2023-02-02T10:27:37;97770.66;;;1.10;60.15
43298;BME280;28892;55.640;37.532;2023-02-02T10:30:17;97762.59;;;1.38;58.93
43298;BME280;28892;55.640;37.532;2023-02-02T10:32:48;97759.78;;;0.89;60.00
43298;BME280;28892;55.640;37.532;2023-02-02T10:35:39;97766.06;;;1.04;60.28
43298;BME280;28892;55.640;37.532;2023-02-02T10:40:58;97759.31;;;1.45;58.57
43298;BME280;28892;55.640;37.532;2023-02-02T10:46:24;97761.84;;;1.88;58.17
43298;BME280;28892;55.640;37.532;2023-02-02T10:51:38;97751.16;;;2.72;55.40
43298;BME280;28892;55.640;37.532;2023-02-02T10:54:23;97740.94;;;1.79;57.20
43298;BME280;28892;55.640;37.532;2023-02-02T10:56:52;97754.16;;;2.44;56.58
43298;BME280;28892;55.640;37.532;2023-02-02T10:59:29;97745.19;;;2.30;56.36
43298;BME280;28892;55.640;37.532;2023-02-02T11:01:56;97737.69;;;2.84;55.21
43298;BME280;28892;55.640;37.532;2023-02-02T11:04:23;97741.56;;;2.31;56.43
43298;BME280;28892;55.640;37.532;2023-02-02T11:07:09;97752.53;;;2.10;57.31
43298;BME280;28892;55.640;37.532;2023-02-02T11:09:40;97734.47;;;2.65;54.94
43298;BME280;28892;55.640;37.532;2023-02-02T11:12:24;97759.88;;;1.73;57.15
43298;BME280;28892;55.640;37.532;2023-02-02T11:14:58;97763.13;;;1.07;59.37
43298;BME280;28892;55.640;37.532;2023-02-02T11:17:27;97758.97;;;1.31;59.11
43298;BME280;28892;55.640;37.532;2023-02-02T11:19:56;97756.13;;;1.16;58.95
43298;BME280;28892;55.640;37.532;2023-02-02T11:22:33;97764.63;;;1.10;59.67
43298;BME280;28892;55.640;37.532;2023-02-02T11:25:04;97760.16;;;1.02;59.61
43298;BME280;28892;55.640;37.532;2023-02-02T11:27:40;97755.34;;;0.81;59.80
43298;BME280;28892;55.640;37.532;2023-02-02T11:30:32;97770.09;;;1.42;59.14
43298;BME280;28892;55.640;37.532;2023-02-02T11:32:59;97774.97;;;0.93;59.91
43298;BME280;28892;55.640;37.532;2023-02-02T11:35:25;97768.25;;;1.25;59.49
43298;BME280;28892;55.640;37.532;2023-02-02T11:40:33;97781.69;;;1.39;59.11
43298;BME280;28892;55.640;37.532;2023-02-02T11:43:12;97782.53;;;1.48;58.69
43298;BME280;28892;55.640;37.532;2023-02-02T11:45:41;97778.66;;;1.17;59.61
43298;BME280;28892;55.640;37.532;2023-02-02T11:48:21;97769.84;;;1.70;58.26
43298;BME280;28892;55.640;37.532;2023-02-02T11:50:52;97777.19;;;1.66;58.17
43298;BME280;28892;55.640;37.532;2023-02-02T11:53:22;97768.03;;;1.70;58.01
43298;BME280;28892;55.640;37.532;2023-02-02T11:55:49;97766.44;;;1.18;58.75
43298;BME280;28892;55.640;37.532;2023-02-02T12:00:52;97772.91;;;1.57;58.24
43298;BME280;28892;55.640;37.532;2023-02-02T12:03:25;97768.69;;;1.72;57.59
43298;BME280;28892;55.640;37.532;2023-02-02T12:05:58;97781.38;;;1.50;58.37
43298;BME280;28892;55.640;37.532;2023-02-02T12:08:24;97772.69;;;1.33;58.49
43298;BME280;28892;55.640;37.532;2023-02-02T12:11:00;97783.31;;;1.32;58.54
43298;BME280;28892;55.640;37.532;2023-02-02T12:13:48;97782.91;;;1.61;58.74
43298;BME280;28892;55.640;37.532;2023-02-02T12:19:19;97782.75;;;1.71;57.64
43298;BME280;28892;55.640;37.532;2023-02-02T12:24:39;97788.81;;;1.20;58.85
43298;BME280;28892;55.640;37.532;2023-02-02T13:02:36;97800.31;;;1.01;59.86
43298;BME280;28892;55.640;37.532;2023-02-02T13:08:03;97801.97;;;1.10;59.54
43298;BME280;28892;55.640;37.532;2023-02-02T13:10:36;97802.84;;;0.85;60.71
43298;BME280;28892;55.640;37.532;2023-02-02T13:13:08;97791.22;;;1.14;59.61
43298;BME280;28892;55.640;37.532;2023-02-02T13:15:43;97801.50;;;1.15;59.88
43298;BME280;28892;55.640;37.532;2023-02-02T13:18:18;97800.06;;;1.21;59.66
43298;BME280;28892;55.640;37.532;2023-02-02T13:20:53;97803.66;;;0.85;60.65
43298;BME280;28892;55.640;37.532;2023-02-02T13:23:31;97802.63;;;0.51;62.14
43298;BME280;28892;55.640;37.532;2023-02-02T13:31:23;97790.31;;;0.88;61.10
43298;BME280;28892;55.640;37.532;2023-02-02T13:36:57;97790.75;;;0.83;61.04
43298;BME280;28892;55.640;37.532;2023-02-02T13:39:36;97802.38;;;0.89;61.43
43298;BME280;28892;55.640;37.532;2023-02-02T13:42:06;97795.06;;;0.93;60.19
43298;BME280;28892;55.640;37.532;2023-02-02T13:44:46;97801.69;;;0.34;62.22
43298;BME280;28892;55.640;37.532;2023-02-02T13:49:47;97810.00;;;0.56;62.34
43298;BME280;28892;55.640;37.532;2023-02-02T13:52:31;97810.03;;;0.38;62.73
43298;BME280;28892;55.640;37.532;2023-02-02T14:00:48;97812.19;;;0.43;62.68
43298;BME280;28892;55.640;37.532;2023-02-02T14:03:25;97814.84;;;0.51;62.87
43298;BME280;28892;55.640;37.532;2023-02-02T14:06:05;97815.97;;;0.66;62.23
43298;BME280;28892;55.640;37.532;2023-02-02T14:08:31;97815.16;;;0.48;62.42
43298;BME280;28892;55.640;37.532;2023-02-02T14:11:00;97815.22;;;1.17;61.24
43298;BME280;28892;55.640;37.532;2023-02-02T14:13:44;97806.00;;;0.96;61.23
43298;BME280;28892;55.640;37.532;2023-02-02T14:18:59;97825.16;;;0.79;62.00
43298;BME280;28892;55.640;37.532;2023-02-02T14:26:48;97831.22;;;0.17;64.25
43298;BME280;28892;55.640;37.532;2023-02-02T14:38:01;97844.75;;;0.83;62.74
43298;BME280;28892;55.640;37.532;2023-02-02T14:41:09;97833.66;;;0.81;62.64
43298;BME280;28892;55.640;37.532;2023-02-02T14:43:46;97840.81;;;0.79;62.67
43298;BME280;28892;55.640;37.532;2023-02-02T14:46:23;97850.03;;;0.65;63.08
43298;BME280;28892;55.640;37.532;2023-02-02T14:51:21;97845.53;;;0.75;62.45
43298;BME280;28892;55.640;37.532;2023-02-02T14:53:54;97851.13;;;0.62;63.20
43298;BME280;28892;55.640;37.532;2023-02-02T14:59:17;97852.50;;;0.93;62.34
43298;BME280;28892;55.640;37.532;2023-02-02T15:01:58;97854.13;;;0.67;63.45
43298;BME280;28892;55.640;37.532;2023-02-02T15:04:26;97867.34;;;0.48;63.92
43298;BME280;28892;55.640;37.532;2023-02-02T15:06:54;97865.34;;;0.23;64.28
43298;BME280;28892;55.640;37.532;2023-02-02T15:14:35;97860.28;;;0.40;64.58
43298;BME280;28892;55.640;37.532;2023-02-02T15:17:29;97854.44;;;0.46;64.04
43298;BME280;28892;55.640;37.532;2023-02-02T15:24:53;97859.53;;;0.48;64.13
43298;BME280;28892;55.640;37.532;2023-02-02T15:27:19;97859.75;;;0.36;64.29
43298;BME280;28892;55.640;37.532;2023-02-02T15:29:51;97864.28;;;0.52;64.10
43298;BME280;28892;55.640;37.532;2023-02-02T15:32:22;97858.47;;;0.85;62.76
43298;BME280;28892;55.640;37.532;2023-02-02T15:34:57;97867.03;;;0.95;62.87
43298;BME280;28892;55.640;37.532;2023-02-02T15:37:25;97860.28;;;1.11;61.90
43298;BME280;28892;55.640;37.532;2023-02-02T15:39:57;97857.47;;;1.13;61.89
43298;BME280;28892;55.640;37.532;2023-02-02T15:42:39;97862.69;;;0.78;63.03
43298;BME280;28892;55.640;37.532;2023-02-02T15:47:54;97877.22;;;0.62;63.38
43298;BME280;28892;55.640;37.532;2023-02-02T15:50:21;97882.03;;;0.49;63.75
43298;BME280;28892;55.640;37.532;2023-02-02T15:52:48;97875.78;;;0.60;63.80
43298;BME280;28892;55.640;37.532;2023-02-02T15:55:33;97879.47;;;0.75;63.62
43298;BME280;28892;55.640;37.532;2023-02-02T15:58:00;97890.22;;;0.54;63.88
43298;BME280;28892;55.640;37.532;2023-02-02T16:00:29;97879.91;;;0.71;63.39
43298;BME280;28892;55.640;37.532;2023-02-02T16:03:09;97889.19;;;0.91;62.94
43298;BME280;28892;55.640;37.532;2023-02-02T16:05:44;97890.44;;;0.43;63.76
43298;BME280;28892;55.640;37.532;2023-02-02T16:08:17;97884.72;;;0.21;64.97
43298;BME280;28892;55.640;37.532;2023-02-02T16:10:45;97881.81;;;0.06;65.61
43298;BME280;28892;55.640;37.532;2023-02-02T16:13:23;97880.31;;;0.03;65.85
43298;BME280;28892;55.640;37.532;2023-02-02T16:16:01;97889.69;;;0.32;65.13
43298;BME280;28892;55.640;37.532;2023-02-02T16:18:28;97893.88;;;0.61;63.77